Главная страница
METAR-TAF:

METAR-TAF

Аэропорты :

Кувейт, Кувейт

широта: 29-13N, долгота: 047-59E, высота над уровнем моря: 55 м

Текущие метеонаблюдения

Эта сводка был подготовлена 46 минут назад, в 21:00 UTC
Ветер 4 Узел от юго-западный
Температура 23°C
Влажность 31%
Давление 1011 hPa
Видимость 10 км и более
Нет облачности ниже 1500 м, и нет кучево-дождевой облачности

METAR: OKBK 252100Z 22004KT CAVOK 23/05 Q1011 NOSIG

Время: 00:46 (21:46 UTC)

Прогноз

Эта сводка был подготовлена 5 часа и 1 минут назад, в 16:45 UTC
Прогноз действительный с 25-го 18 UTC до 26-го 24 UTC
Ветер 8 Узел от юго-юго-восточный с порывами до 18 Узел
Видимость: 7000 м
Отдельные облака на высоте 4000 фута
Рассеянная облачность на высоте 8000 фута
временами
С 25-го 18 UTC до 26-го 03 UTC
Видимость: 3000 м
небольшая облачность на высоте 3000 фута, Кучево-дождевые.

TAF: OKBK 251645Z 2518/2624 15008G18KT 7000 SCT040 BKN080 TEMPO 2518/2603 3000 -TSRA/BLDU FEW030CB

Метеонаблюдения и прогнозы для более 4000 аэропортов (сводки METAR и TAF).

Имеющиеся станции представлены на карте желтыми и красными точками.

Чтобы увидеть название станции, наведите на нее мышь.

Затем щелкните, чтобы увидеть метеонаблюдения и метеопрогнозы.

Управление картой: чтобы увеличить масштаб, щелкните зеленые кнопки с черным крестиком; чтобы уменьшить масштаб, щелкните зеленую кнопку с тире; для просмотра соседних карт щелкайте зеленые стрелки.


METAR-TAF: